sensor_id;sensor_type;location;lat;lon;timestamp;P1;durP1;ratioP1;P2;durP2;ratioP2
8675;SDS011;4375;52.486;13.424;2022-10-31T00:00:20;48.90;;;27.43;;
8675;SDS011;4375;52.486;13.424;2022-10-31T00:02:46;55.10;;;26.40;;
8675;SDS011;4375;52.486;13.424;2022-10-31T00:05:12;49.13;;;26.00;;
8675;SDS011;4375;52.486;13.424;2022-10-31T00:07:37;48.67;;;26.23;;
8675;SDS011;4375;52.486;13.424;2022-10-31T00:10:03;45.17;;;22.50;;
8675;SDS011;4375;52.486;13.424;2022-10-31T00:12:29;49.07;;;24.50;;
8675;SDS011;4375;52.486;13.424;2022-10-31T00:14:55;47.30;;;23.90;;
8675;SDS011;4375;52.486;13.424;2022-10-31T00:17:21;45.80;;;21.43;;
8675;SDS011;4375;52.486;13.424;2022-10-31T00:19:46;42.80;;;22.40;;
8675;SDS011;4375;52.486;13.424;2022-10-31T00:22:12;42.13;;;18.93;;
8675;SDS011;4375;52.486;13.424;2022-10-31T00:24:37;41.80;;;20.23;;
8675;SDS011;4375;52.486;13.424;2022-10-31T00:27:03;38.37;;;17.90;;
8675;SDS011;4375;52.486;13.424;2022-10-31T00:29:28;42.50;;;19.50;;
8675;SDS011;4375;52.486;13.424;2022-10-31T00:31:54;45.03;;;19.80;;
8675;SDS011;4375;52.486;13.424;2022-10-31T00:34:20;44.93;;;18.53;;
8675;SDS011;4375;52.486;13.424;2022-10-31T00:36:45;36.90;;;19.33;;
8675;SDS011;4375;52.486;13.424;2022-10-31T00:39:11;40.53;;;19.03;;
8675;SDS011;4375;52.486;13.424;2022-10-31T00:41:36;44.53;;;18.63;;
8675;SDS011;4375;52.486;13.424;2022-10-31T00:44:02;44.10;;;19.03;;
8675;SDS011;4375;52.486;13.424;2022-10-31T00:46:28;43.53;;;18.50;;
8675;SDS011;4375;52.486;13.424;2022-10-31T00:48:53;40.17;;;19.57;;
8675;SDS011;4375;52.486;13.424;2022-10-31T00:51:19;38.97;;;18.60;;
8675;SDS011;4375;52.486;13.424;2022-10-31T00:53:44;39.87;;;18.43;;
8675;SDS011;4375;52.486;13.424;2022-10-31T00:56:10;39.80;;;17.97;;
8675;SDS011;4375;52.486;13.424;2022-10-31T00:58:36;43.77;;;18.67;;
8675;SDS011;4375;52.486;13.424;2022-10-31T01:01:02;40.20;;;17.90;;
8675;SDS011;4375;52.486;13.424;2022-10-31T01:03:30;35.57;;;17.40;;
8675;SDS011;4375;52.486;13.424;2022-10-31T01:08:29;41.93;;;18.10;;
8675;SDS011;4375;52.486;13.424;2022-10-31T01:10:59;42.47;;;18.23;;
8675;SDS011;4375;52.486;13.424;2022-10-31T01:13:26;40.50;;;19.67;;
8675;SDS011;4375;52.486;13.424;2022-10-31T01:15:55;43.00;;;18.30;;
8675;SDS011;4375;52.486;13.424;2022-10-31T01:18:22;37.03;;;17.47;;
8675;SDS011;4375;52.486;13.424;2022-10-31T01:21:01;34.00;;;16.33;;
8675;SDS011;4375;52.486;13.424;2022-10-31T01:23:38;39.03;;;16.47;;
8675;SDS011;4375;52.486;13.424;2022-10-31T01:26:05;38.40;;;17.17;;
8675;SDS011;4375;52.486;13.424;2022-10-31T01:28:32;35.23;;;16.87;;
8675;SDS011;4375;52.486;13.424;2022-10-31T01:31:01;38.40;;;18.03;;
8675;SDS011;4375;52.486;13.424;2022-10-31T01:33:29;40.73;;;17.73;;
8675;SDS011;4375;52.486;13.424;2022-10-31T01:35:54;34.07;;;16.97;;
8675;SDS011;4375;52.486;13.424;2022-10-31T01:38:20;35.80;;;16.23;;
8675;SDS011;4375;52.486;13.424;2022-10-31T01:40:46;32.80;;;15.60;;
8675;SDS011;4375;52.486;13.424;2022-10-31T01:43:13;39.53;;;17.47;;
8675;SDS011;4375;52.486;13.424;2022-10-31T01:45:39;36.03;;;15.67;;
8675;SDS011;4375;52.486;13.424;2022-10-31T01:48:09;38.70;;;16.43;;
8675;SDS011;4375;52.486;13.424;2022-10-31T01:50:40;31.40;;;14.70;;
8675;SDS011;4375;52.486;13.424;2022-10-31T01:53:07;35.07;;;16.20;;
8675;SDS011;4375;52.486;13.424;2022-10-31T01:55:38;38.30;;;16.70;;
8675;SDS011;4375;52.486;13.424;2022-10-31T01:58:13;32.73;;;16.23;;
8675;SDS011;4375;52.486;13.424;2022-10-31T02:00:41;35.73;;;15.80;;
8675;SDS011;4375;52.486;13.424;2022-10-31T02:03:11;37.90;;;16.20;;
8675;SDS011;4375;52.486;13.424;2022-10-31T02:05:37;38.47;;;16.20;;
8675;SDS011;4375;52.486;13.424;2022-10-31T02:10:29;35.43;;;16.37;;
8675;SDS011;4375;52.486;13.424;2022-10-31T02:12:57;33.63;;;15.60;;
8675;SDS011;4375;52.486;13.424;2022-10-31T02:15:24;45.03;;;16.17;;
8675;SDS011;4375;52.486;13.424;2022-10-31T02:17:53;36.73;;;16.30;;
8675;SDS011;4375;52.486;13.424;2022-10-31T02:20:22;43.97;;;17.40;;
8675;SDS011;4375;52.486;13.424;2022-10-31T02:22:56;40.80;;;16.30;;
8675;SDS011;4375;52.486;13.424;2022-10-31T02:34:15;34.60;;;16.20;;
8675;SDS011;4375;52.486;13.424;2022-10-31T02:39:53;45.77;;;18.20;;
8675;SDS011;4375;52.486;13.424;2022-10-31T02:45:22;36.47;;;15.40;;
8675;SDS011;4375;52.486;13.424;2022-10-31T02:47:49;33.03;;;15.60;;
8675;SDS011;4375;52.486;13.424;2022-10-31T02:50:22;29.03;;;15.57;;
8675;SDS011;4375;52.486;13.424;2022-10-31T02:52:53;35.53;;;15.23;;
8675;SDS011;4375;52.486;13.424;2022-10-31T02:57:47;29.67;;;14.70;;
8675;SDS011;4375;52.486;13.424;2022-10-31T03:00:14;33.40;;;16.47;;
8675;SDS011;4375;52.486;13.424;2022-10-31T03:08:35;38.93;;;15.93;;
8675;SDS011;4375;52.486;13.424;2022-10-31T03:11:20;33.20;;;15.50;;
8675;SDS011;4375;52.486;13.424;2022-10-31T03:19:19;43.57;;;14.77;;
8675;SDS011;4375;52.486;13.424;2022-10-31T03:22:00;36.30;;;15.83;;
8675;SDS011;4375;52.486;13.424;2022-10-31T03:24:33;36.53;;;15.33;;
8675;SDS011;4375;52.486;13.424;2022-10-31T03:27:02;33.27;;;15.60;;
8675;SDS011;4375;52.486;13.424;2022-10-31T03:29:33;32.60;;;15.43;;
8675;SDS011;4375;52.486;13.424;2022-10-31T03:32:02;34.57;;;15.37;;
8675;SDS011;4375;52.486;13.424;2022-10-31T03:34:36;32.57;;;15.10;;
8675;SDS011;4375;52.486;13.424;2022-10-31T03:37:05;36.03;;;15.20;;
8675;SDS011;4375;52.486;13.424;2022-10-31T03:39:33;33.10;;;14.27;;
8675;SDS011;4375;52.486;13.424;2022-10-31T03:42:08;36.30;;;14.20;;
8675;SDS011;4375;52.486;13.424;2022-10-31T03:44:47;31.93;;;14.40;;
8675;SDS011;4375;52.486;13.424;2022-10-31T03:47:26;32.73;;;14.93;;
8675;SDS011;4375;52.486;13.424;2022-10-31T03:49:52;32.93;;;13.80;;
8675;SDS011;4375;52.486;13.424;2022-10-31T03:52:22;33.87;;;15.23;;
8675;SDS011;4375;52.486;13.424;2022-10-31T03:55:05;32.33;;;14.90;;
8675;SDS011;4375;52.486;13.424;2022-10-31T03:57:49;34.73;;;13.57;;
8675;SDS011;4375;52.486;13.424;2022-10-31T04:00:25;36.70;;;13.30;;
8675;SDS011;4375;52.486;13.424;2022-10-31T04:03:07;28.93;;;13.83;;
8675;SDS011;4375;52.486;13.424;2022-10-31T04:05:38;33.20;;;13.10;;
8675;SDS011;4375;52.486;13.424;2022-10-31T04:08:07;34.50;;;14.67;;
8675;SDS011;4375;52.486;13.424;2022-10-31T04:10:37;31.63;;;13.97;;
8675;SDS011;4375;52.486;13.424;2022-10-31T04:13:07;35.10;;;13.80;;
8675;SDS011;4375;52.486;13.424;2022-10-31T04:15:36;31.07;;;13.00;;
8675;SDS011;4375;52.486;13.424;2022-10-31T04:18:03;35.70;;;14.70;;
8675;SDS011;4375;52.486;13.424;2022-10-31T04:20:34;35.70;;;15.03;;
8675;SDS011;4375;52.486;13.424;2022-10-31T04:23:01;34.63;;;14.27;;
8675;SDS011;4375;52.486;13.424;2022-10-31T04:25:27;36.33;;;13.90;;
8675;SDS011;4375;52.486;13.424;2022-10-31T04:27:53;35.10;;;13.17;;
8675;SDS011;4375;52.486;13.424;2022-10-31T04:30:19;32.30;;;14.00;;
8675;SDS011;4375;52.486;13.424;2022-10-31T04:32:45;31.70;;;14.37;;
8675;SDS011;4375;52.486;13.424;2022-10-31T04:35:10;29.23;;;13.00;;
8675;SDS011;4375;52.486;13.424;2022-10-31T04:37:36;32.83;;;14.37;;
8675;SDS011;4375;52.486;13.424;2022-10-31T04:40:02;30.50;;;13.30;;
8675;SDS011;4375;52.486;13.424;2022-10-31T04:42:29;40.37;;;13.93;;
8675;SDS011;4375;52.486;13.424;2022-10-31T04:44:55;33.97;;;14.57;;
8675;SDS011;4375;52.486;13.424;2022-10-31T04:47:20;34.67;;;13.40;;
8675;SDS011;4375;52.486;13.424;2022-10-31T04:49:46;33.20;;;14.70;;
8675;SDS011;4375;52.486;13.424;2022-10-31T04:52:11;29.07;;;13.80;;
8675;SDS011;4375;52.486;13.424;2022-10-31T04:54:37;29.33;;;14.50;;
8675;SDS011;4375;52.486;13.424;2022-10-31T04:57:03;33.10;;;12.93;;
8675;SDS011;4375;52.486;13.424;2022-10-31T04:59:29;35.07;;;14.83;;
8675;SDS011;4375;52.486;13.424;2022-10-31T05:01:54;34.60;;;15.03;;
8675;SDS011;4375;52.486;13.424;2022-10-31T05:04:20;32.87;;;13.20;;
8675;SDS011;4375;52.486;13.424;2022-10-31T05:06:45;31.70;;;13.30;;
8675;SDS011;4375;52.486;13.424;2022-10-31T05:09:11;32.23;;;13.27;;
8675;SDS011;4375;52.486;13.424;2022-10-31T05:11:37;28.30;;;12.57;;
8675;SDS011;4375;52.486;13.424;2022-10-31T05:14:02;33.83;;;13.23;;
8675;SDS011;4375;52.486;13.424;2022-10-31T05:16:28;34.57;;;14.27;;
8675;SDS011;4375;52.486;13.424;2022-10-31T05:18:54;29.70;;;13.83;;
8675;SDS011;4375;52.486;13.424;2022-10-31T05:21:19;36.23;;;13.90;;
8675;SDS011;4375;52.486;13.424;2022-10-31T05:23:45;31.17;;;14.63;;
8675;SDS011;4375;52.486;13.424;2022-10-31T05:26:10;36.73;;;14.60;;
8675;SDS011;4375;52.486;13.424;2022-10-31T05:28:36;28.97;;;13.60;;
8675;SDS011;4375;52.486;13.424;2022-10-31T05:31:02;32.27;;;14.40;;
8675;SDS011;4375;52.486;13.424;2022-10-31T05:33:27;35.20;;;14.70;;
8675;SDS011;4375;52.486;13.424;2022-10-31T05:35:53;43.47;;;15.70;;
8675;SDS011;4375;52.486;13.424;2022-10-31T05:38:19;34.47;;;14.47;;
8675;SDS011;4375;52.486;13.424;2022-10-31T05:40:44;30.53;;;13.93;;
8675;SDS011;4375;52.486;13.424;2022-10-31T05:43:10;32.07;;;14.03;;
8675;SDS011;4375;52.486;13.424;2022-10-31T05:45:36;34.27;;;14.37;;
8675;SDS011;4375;52.486;13.424;2022-10-31T05:48:02;38.13;;;14.10;;
8675;SDS011;4375;52.486;13.424;2022-10-31T05:50:28;32.57;;;14.40;;
8675;SDS011;4375;52.486;13.424;2022-10-31T05:52:56;28.10;;;14.00;;
8675;SDS011;4375;52.486;13.424;2022-10-31T05:55:26;29.03;;;13.83;;
8675;SDS011;4375;52.486;13.424;2022-10-31T05:57:53;33.00;;;13.20;;
8675;SDS011;4375;52.486;13.424;2022-10-31T06:00:19;28.80;;;12.87;;
8675;SDS011;4375;52.486;13.424;2022-10-31T06:02:45;33.07;;;13.43;;
8675;SDS011;4375;52.486;13.424;2022-10-31T06:05:11;33.10;;;14.07;;
8675;SDS011;4375;52.486;13.424;2022-10-31T06:07:37;35.27;;;13.77;;
8675;SDS011;4375;52.486;13.424;2022-10-31T06:10:03;30.20;;;13.40;;
8675;SDS011;4375;52.486;13.424;2022-10-31T06:12:31;30.90;;;13.90;;
8675;SDS011;4375;52.486;13.424;2022-10-31T06:14:57;37.30;;;15.10;;
8675;SDS011;4375;52.486;13.424;2022-10-31T06:17:22;31.10;;;14.13;;
8675;SDS011;4375;52.486;13.424;2022-10-31T06:19:48;37.63;;;12.70;;
8675;SDS011;4375;52.486;13.424;2022-10-31T06:22:13;36.40;;;14.50;;
8675;SDS011;4375;52.486;13.424;2022-10-31T06:24:39;30.33;;;13.10;;
8675;SDS011;4375;52.486;13.424;2022-10-31T06:27:05;32.70;;;13.93;;
8675;SDS011;4375;52.486;13.424;2022-10-31T06:29:31;30.67;;;13.10;;
8675;SDS011;4375;52.486;13.424;2022-10-31T06:31:57;31.27;;;13.27;;
8675;SDS011;4375;52.486;13.424;2022-10-31T06:34:22;45.77;;;14.10;;
8675;SDS011;4375;52.486;13.424;2022-10-31T06:36:48;36.93;;;14.20;;
8675;SDS011;4375;52.486;13.424;2022-10-31T06:39:14;31.43;;;12.90;;
8675;SDS011;4375;52.486;13.424;2022-10-31T06:41:40;29.97;;;14.03;;
8675;SDS011;4375;52.486;13.424;2022-10-31T06:44:06;39.40;;;16.53;;
8675;SDS011;4375;52.486;13.424;2022-10-31T06:46:32;41.90;;;14.13;;
8675;SDS011;4375;52.486;13.424;2022-10-31T06:48:58;38.57;;;14.30;;
8675;SDS011;4375;52.486;13.424;2022-10-31T06:51:24;31.63;;;14.57;;
8675;SDS011;4375;52.486;13.424;2022-10-31T06:53:50;33.83;;;13.30;;
8675;SDS011;4375;52.486;13.424;2022-10-31T06:56:15;34.00;;;13.70;;
8675;SDS011;4375;52.486;13.424;2022-10-31T06:58:41;32.13;;;13.60;;
8675;SDS011;4375;52.486;13.424;2022-10-31T07:01:07;32.37;;;13.80;;
8675;SDS011;4375;52.486;13.424;2022-10-31T07:03:32;44.50;;;14.80;;
8675;SDS011;4375;52.486;13.424;2022-10-31T07:05:58;35.33;;;14.93;;
8675;SDS011;4375;52.486;13.424;2022-10-31T07:08:24;36.07;;;13.73;;
8675;SDS011;4375;52.486;13.424;2022-10-31T07:10:51;35.90;;;15.17;;
8675;SDS011;4375;52.486;13.424;2022-10-31T07:13:18;40.10;;;16.03;;
8675;SDS011;4375;52.486;13.424;2022-10-31T07:15:48;32.67;;;13.60;;
8675;SDS011;4375;52.486;13.424;2022-10-31T07:18:14;32.67;;;13.80;;
8675;SDS011;4375;52.486;13.424;2022-10-31T07:20:39;39.27;;;16.10;;
8675;SDS011;4375;52.486;13.424;2022-10-31T07:23:05;34.93;;;13.53;;
8675;SDS011;4375;52.486;13.424;2022-10-31T07:25:31;32.77;;;13.77;;
8675;SDS011;4375;52.486;13.424;2022-10-31T07:27:57;34.13;;;14.50;;
8675;SDS011;4375;52.486;13.424;2022-10-31T07:30:22;30.43;;;14.33;;
8675;SDS011;4375;52.486;13.424;2022-10-31T07:32:48;33.63;;;13.53;;
8675;SDS011;4375;52.486;13.424;2022-10-31T07:35:16;38.10;;;13.87;;
8675;SDS011;4375;52.486;13.424;2022-10-31T07:37:42;34.80;;;13.70;;
8675;SDS011;4375;52.486;13.424;2022-10-31T07:40:08;34.20;;;13.50;;
8675;SDS011;4375;52.486;13.424;2022-10-31T07:42:38;36.97;;;14.67;;
8675;SDS011;4375;52.486;13.424;2022-10-31T07:45:06;33.57;;;14.73;;
8675;SDS011;4375;52.486;13.424;2022-10-31T07:47:50;34.97;;;14.07;;
8675;SDS011;4375;52.486;13.424;2022-10-31T07:50:20;34.50;;;15.37;;
8675;SDS011;4375;52.486;13.424;2022-10-31T07:53:00;50.20;;;16.30;;
8675;SDS011;4375;52.486;13.424;2022-10-31T07:55:28;33.60;;;14.53;;
8675;SDS011;4375;52.486;13.424;2022-10-31T07:58:02;36.73;;;15.23;;
8675;SDS011;4375;52.486;13.424;2022-10-31T08:00:29;37.73;;;15.80;;
8675;SDS011;4375;52.486;13.424;2022-10-31T08:02:59;38.10;;;16.10;;
8675;SDS011;4375;52.486;13.424;2022-10-31T08:05:25;39.27;;;15.27;;
8675;SDS011;4375;52.486;13.424;2022-10-31T08:07:51;40.37;;;16.50;;
8675;SDS011;4375;52.486;13.424;2022-10-31T08:10:17;38.17;;;16.80;;
8675;SDS011;4375;52.486;13.424;2022-10-31T08:12:43;40.13;;;16.97;;
8675;SDS011;4375;52.486;13.424;2022-10-31T08:15:09;38.60;;;17.47;;
8675;SDS011;4375;52.486;13.424;2022-10-31T08:17:35;35.37;;;16.90;;
8675;SDS011;4375;52.486;13.424;2022-10-31T08:20:02;37.23;;;17.57;;
8675;SDS011;4375;52.486;13.424;2022-10-31T08:22:28;52.23;;;18.20;;
8675;SDS011;4375;52.486;13.424;2022-10-31T08:24:57;41.47;;;17.03;;
8675;SDS011;4375;52.486;13.424;2022-10-31T08:27:23;45.53;;;18.07;;
8675;SDS011;4375;52.486;13.424;2022-10-31T08:29:48;44.93;;;18.23;;
8675;SDS011;4375;52.486;13.424;2022-10-31T08:32:14;34.93;;;16.57;;
8675;SDS011;4375;52.486;13.424;2022-10-31T08:34:39;42.33;;;18.50;;
8675;SDS011;4375;52.486;13.424;2022-10-31T08:37:05;42.37;;;17.77;;
8675;SDS011;4375;52.486;13.424;2022-10-31T08:39:31;43.00;;;17.47;;
8675;SDS011;4375;52.486;13.424;2022-10-31T08:41:56;42.97;;;17.73;;
8675;SDS011;4375;52.486;13.424;2022-10-31T08:44:22;43.83;;;19.87;;
8675;SDS011;4375;52.486;13.424;2022-10-31T08:46:47;41.97;;;19.60;;
8675;SDS011;4375;52.486;13.424;2022-10-31T08:49:13;45.77;;;16.87;;
8675;SDS011;4375;52.486;13.424;2022-10-31T08:51:39;48.20;;;19.63;;
8675;SDS011;4375;52.486;13.424;2022-10-31T08:54:04;45.63;;;18.97;;
8675;SDS011;4375;52.486;13.424;2022-10-31T08:56:30;49.33;;;19.40;;
8675;SDS011;4375;52.486;13.424;2022-10-31T08:58:58;42.90;;;18.40;;
8675;SDS011;4375;52.486;13.424;2022-10-31T09:01:24;41.73;;;17.87;;
8675;SDS011;4375;52.486;13.424;2022-10-31T09:03:49;46.67;;;20.87;;
8675;SDS011;4375;52.486;13.424;2022-10-31T09:06:15;39.77;;;18.63;;
8675;SDS011;4375;52.486;13.424;2022-10-31T09:08:41;39.70;;;17.37;;
8675;SDS011;4375;52.486;13.424;2022-10-31T09:11:06;41.50;;;19.23;;
8675;SDS011;4375;52.486;13.424;2022-10-31T09:13:32;37.70;;;17.67;;
8675;SDS011;4375;52.486;13.424;2022-10-31T09:15:58;46.13;;;18.70;;
8675;SDS011;4375;52.486;13.424;2022-10-31T09:18:24;40.33;;;18.90;;
8675;SDS011;4375;52.486;13.424;2022-10-31T09:20:50;48.27;;;19.07;;
8675;SDS011;4375;52.486;13.424;2022-10-31T09:23:17;43.70;;;19.40;;
8675;SDS011;4375;52.486;13.424;2022-10-31T09:25:44;43.33;;;19.10;;
8675;SDS011;4375;52.486;13.424;2022-10-31T09:28:11;45.13;;;19.67;;
8675;SDS011;4375;52.486;13.424;2022-10-31T09:30:38;42.60;;;18.67;;
8675;SDS011;4375;52.486;13.424;2022-10-31T09:33:11;46.80;;;19.40;;
8675;SDS011;4375;52.486;13.424;2022-10-31T09:35:37;47.83;;;21.03;;
8675;SDS011;4375;52.486;13.424;2022-10-31T09:38:07;45.33;;;19.70;;
8675;SDS011;4375;52.486;13.424;2022-10-31T09:45:52;42.60;;;19.53;;
8675;SDS011;4375;52.486;13.424;2022-10-31T09:48:36;39.87;;;19.70;;
8675;SDS011;4375;52.486;13.424;2022-10-31T09:51:30;43.90;;;21.07;;
8675;SDS011;4375;52.486;13.424;2022-10-31T09:57:10;53.30;;;22.30;;
8675;SDS011;4375;52.486;13.424;2022-10-31T09:59:39;42.87;;;20.63;;
8675;SDS011;4375;52.486;13.424;2022-10-31T10:02:13;46.63;;;20.67;;
8675;SDS011;4375;52.486;13.424;2022-10-31T10:07:22;47.80;;;21.90;;
8675;SDS011;4375;52.486;13.424;2022-10-31T10:10:05;49.13;;;22.50;;
8675;SDS011;4375;52.486;13.424;2022-10-31T10:18:41;47.77;;;20.40;;
8675;SDS011;4375;52.486;13.424;2022-10-31T10:26:36;53.47;;;23.97;;
8675;SDS011;4375;52.486;13.424;2022-10-31T10:31:58;49.53;;;22.10;;
8675;SDS011;4375;52.486;13.424;2022-10-31T10:34:34;45.97;;;22.40;;
8675;SDS011;4375;52.486;13.424;2022-10-31T10:37:10;42.93;;;20.97;;
8675;SDS011;4375;52.486;13.424;2022-10-31T10:39:45;47.43;;;21.20;;
8675;SDS011;4375;52.486;13.424;2022-10-31T10:42:15;47.20;;;22.00;;
8675;SDS011;4375;52.486;13.424;2022-10-31T10:45:00;41.57;;;20.70;;
8675;SDS011;4375;52.486;13.424;2022-10-31T10:47:59;52.70;;;22.30;;
8675;SDS011;4375;52.486;13.424;2022-10-31T10:50:56;51.07;;;21.83;;
8675;SDS011;4375;52.486;13.424;2022-10-31T10:56:49;45.20;;;21.00;;
8675;SDS011;4375;52.486;13.424;2022-10-31T10:59:13;53.73;;;23.50;;
8675;SDS011;4375;52.486;13.424;2022-10-31T11:01:42;46.40;;;21.07;;
8675;SDS011;4375;52.486;13.424;2022-10-31T11:04:21;44.33;;;21.03;;
8675;SDS011;4375;52.486;13.424;2022-10-31T11:06:56;50.63;;;21.80;;
8675;SDS011;4375;52.486;13.424;2022-10-31T11:09:29;50.33;;;21.10;;
8675;SDS011;4375;52.486;13.424;2022-10-31T11:11:55;41.60;;;22.70;;
8675;SDS011;4375;52.486;13.424;2022-10-31T11:14:22;51.47;;;22.20;;
8675;SDS011;4375;52.486;13.424;2022-10-31T11:16:50;46.47;;;20.93;;
8675;SDS011;4375;52.486;13.424;2022-10-31T11:21:47;43.13;;;22.40;;
8675;SDS011;4375;52.486;13.424;2022-10-31T11:24:15;45.67;;;22.17;;
8675;SDS011;4375;52.486;13.424;2022-10-31T11:26:43;45.20;;;22.37;;
8675;SDS011;4375;52.486;13.424;2022-10-31T11:29:31;45.43;;;23.10;;
8675;SDS011;4375;52.486;13.424;2022-10-31T11:31:56;49.10;;;23.80;;
8675;SDS011;4375;52.486;13.424;2022-10-31T11:34:27;47.40;;;22.80;;
8675;SDS011;4375;52.486;13.424;2022-10-31T11:37:20;47.87;;;22.97;;
8675;SDS011;4375;52.486;13.424;2022-10-31T11:39:55;48.53;;;23.27;;
8675;SDS011;4375;52.486;13.424;2022-10-31T11:42:25;48.73;;;21.53;;
8675;SDS011;4375;52.486;13.424;2022-10-31T11:44:52;46.57;;;22.10;;
8675;SDS011;4375;52.486;13.424;2022-10-31T11:47:29;45.77;;;23.40;;
8675;SDS011;4375;52.486;13.424;2022-10-31T11:49:57;46.53;;;20.27;;
8675;SDS011;4375;52.486;13.424;2022-10-31T11:52:33;46.83;;;21.80;;
8675;SDS011;4375;52.486;13.424;2022-10-31T11:55:42;52.63;;;22.27;;
8675;SDS011;4375;52.486;13.424;2022-10-31T11:57:59;51.37;;;22.73;;
8675;SDS011;4375;52.486;13.424;2022-10-31T12:00:37;47.70;;;22.30;;
8675;SDS011;4375;52.486;13.424;2022-10-31T12:05:47;44.13;;;23.17;;
8675;SDS011;4375;52.486;13.424;2022-10-31T12:08:18;49.80;;;23.40;;
8675;SDS011;4375;52.486;13.424;2022-10-31T12:15:46;50.57;;;23.23;;
8675;SDS011;4375;52.486;13.424;2022-10-31T12:23:45;49.03;;;21.67;;
8675;SDS011;4375;52.486;13.424;2022-10-31T12:26:31;49.40;;;22.37;;
8675;SDS011;4375;52.486;13.424;2022-10-31T12:29:24;52.47;;;24.07;;
8675;SDS011;4375;52.486;13.424;2022-10-31T12:32:21;48.43;;;23.37;;
8675;SDS011;4375;52.486;13.424;2022-10-31T12:38:15;47.73;;;22.50;;
8675;SDS011;4375;52.486;13.424;2022-10-31T12:46:25;51.87;;;23.63;;
8675;SDS011;4375;52.486;13.424;2022-10-31T12:57:48;58.80;;;25.60;;
8675;SDS011;4375;52.486;13.424;2022-10-31T13:00:19;55.93;;;23.13;;
8675;SDS011;4375;52.486;13.424;2022-10-31T13:02:56;55.23;;;24.00;;
8675;SDS011;4375;52.486;13.424;2022-10-31T13:05:36;50.13;;;22.97;;
8675;SDS011;4375;52.486;13.424;2022-10-31T13:08:18;51.30;;;23.83;;
8675;SDS011;4375;52.486;13.424;2022-10-31T13:11:08;52.80;;;25.57;;
8675;SDS011;4375;52.486;13.424;2022-10-31T13:13:58;61.17;;;26.50;;
8675;SDS011;4375;52.486;13.424;2022-10-31T13:16:42;58.20;;;25.47;;
8675;SDS011;4375;52.486;13.424;2022-10-31T13:24:41;55.73;;;24.80;;
8675;SDS011;4375;52.486;13.424;2022-10-31T13:27:15;57.03;;;25.67;;
8675;SDS011;4375;52.486;13.424;2022-10-31T13:29:59;59.10;;;25.40;;
8675;SDS011;4375;52.486;13.424;2022-10-31T13:32:41;49.50;;;25.20;;
8675;SDS011;4375;52.486;13.424;2022-10-31T13:35:24;53.87;;;25.30;;
8675;SDS011;4375;52.486;13.424;2022-10-31T13:37:57;49.80;;;25.20;;
8675;SDS011;4375;52.486;13.424;2022-10-31T13:45:52;54.10;;;24.57;;
8675;SDS011;4375;52.486;13.424;2022-10-31T13:48:31;49.57;;;25.33;;
8675;SDS011;4375;52.486;13.424;2022-10-31T13:51:00;53.63;;;24.37;;
8675;SDS011;4375;52.486;13.424;2022-10-31T13:53:40;56.67;;;26.40;;
8675;SDS011;4375;52.486;13.424;2022-10-31T13:56:16;62.00;;;26.20;;
8675;SDS011;4375;52.486;13.424;2022-10-31T13:58:58;54.40;;;25.83;;
8675;SDS011;4375;52.486;13.424;2022-10-31T14:01:26;57.67;;;26.30;;
8675;SDS011;4375;52.486;13.424;2022-10-31T14:56:52;53.57;;;26.83;;
8675;SDS011;4375;52.486;13.424;2022-10-31T14:59:28;59.40;;;29.13;;
8675;SDS011;4375;52.486;13.424;2022-10-31T15:01:59;68.10;;;29.47;;
8675;SDS011;4375;52.486;13.424;2022-10-31T15:04:34;63.03;;;31.03;;
8675;SDS011;4375;52.486;13.424;2022-10-31T15:07:14;60.53;;;29.77;;
8675;SDS011;4375;52.486;13.424;2022-10-31T15:09:45;66.90;;;31.13;;
8675;SDS011;4375;52.486;13.424;2022-10-31T15:12:30;75.37;;;32.93;;
8675;SDS011;4375;52.486;13.424;2022-10-31T15:14:57;66.37;;;32.30;;
8675;SDS011;4375;52.486;13.424;2022-10-31T15:17:35;69.67;;;33.33;;
8675;SDS011;4375;52.486;13.424;2022-10-31T15:20:00;73.70;;;37.20;;
8675;SDS011;4375;52.486;13.424;2022-10-31T15:22:28;85.10;;;45.90;;
8675;SDS011;4375;52.486;13.424;2022-10-31T15:24:56;73.33;;;39.00;;
8675;SDS011;4375;52.486;13.424;2022-10-31T15:27:22;68.17;;;34.30;;
8675;SDS011;4375;52.486;13.424;2022-10-31T15:29:50;81.57;;;37.90;;
8675;SDS011;4375;52.486;13.424;2022-10-31T15:32:25;71.50;;;34.70;;
8675;SDS011;4375;52.486;13.424;2022-10-31T15:34:52;73.17;;;35.43;;
8675;SDS011;4375;52.486;13.424;2022-10-31T15:37:19;72.53;;;36.80;;
8675;SDS011;4375;52.486;13.424;2022-10-31T15:39:47;104.13;;;55.50;;
8675;SDS011;4375;52.486;13.424;2022-10-31T15:45:37;110.67;;;51.10;;
8675;SDS011;4375;52.486;13.424;2022-10-31T15:47:37;130.27;;;62.80;;
8675;SDS011;4375;52.486;13.424;2022-10-31T15:52:53;82.53;;;41.70;;
8675;SDS011;4375;52.486;13.424;2022-10-31T15:55:23;81.57;;;39.77;;
8675;SDS011;4375;52.486;13.424;2022-10-31T15:57:53;93.90;;;43.40;;
8675;SDS011;4375;52.486;13.424;2022-10-31T16:05:36;79.97;;;36.47;;
8675;SDS011;4375;52.486;13.424;2022-10-31T16:08:04;84.17;;;40.87;;
8675;SDS011;4375;52.486;13.424;2022-10-31T16:10:46;89.07;;;41.73;;
8675;SDS011;4375;52.486;13.424;2022-10-31T16:13:12;87.17;;;39.73;;
8675;SDS011;4375;52.486;13.424;2022-10-31T16:15:38;72.53;;;35.27;;
8675;SDS011;4375;52.486;13.424;2022-10-31T16:18:17;72.90;;;35.80;;
8675;SDS011;4375;52.486;13.424;2022-10-31T16:20:47;70.37;;;38.03;;
8675;SDS011;4375;52.486;13.424;2022-10-31T16:23:20;89.80;;;43.37;;
8675;SDS011;4375;52.486;13.424;2022-10-31T16:25:47;93.30;;;45.50;;
8675;SDS011;4375;52.486;13.424;2022-10-31T16:28:21;88.17;;;43.03;;
8675;SDS011;4375;52.486;13.424;2022-10-31T16:30:50;84.87;;;38.30;;
8675;SDS011;4375;52.486;13.424;2022-10-31T16:35:49;73.90;;;38.23;;
8675;SDS011;4375;52.486;13.424;2022-10-31T16:38:15;71.53;;;35.53;;
8675;SDS011;4375;52.486;13.424;2022-10-31T16:40:41;77.47;;;35.67;;
8675;SDS011;4375;52.486;13.424;2022-10-31T16:43:13;83.87;;;35.33;;
8675;SDS011;4375;52.486;13.424;2022-10-31T16:45:45;70.43;;;35.70;;
8675;SDS011;4375;52.486;13.424;2022-10-31T16:48:13;71.77;;;34.00;;
8675;SDS011;4375;52.486;13.424;2022-10-31T16:50:41;71.20;;;35.27;;
8675;SDS011;4375;52.486;13.424;2022-10-31T16:53:08;75.47;;;36.20;;
8675;SDS011;4375;52.486;13.424;2022-10-31T16:58:12;76.70;;;35.80;;
8675;SDS011;4375;52.486;13.424;2022-10-31T17:00:49;77.73;;;36.50;;
8675;SDS011;4375;52.486;13.424;2022-10-31T17:05:48;73.70;;;36.87;;
8675;SDS011;4375;52.486;13.424;2022-10-31T17:08:14;79.87;;;37.80;;
8675;SDS011;4375;52.486;13.424;2022-10-31T17:10:40;81.10;;;40.07;;
8675;SDS011;4375;52.486;13.424;2022-10-31T17:13:10;98.33;;;40.67;;
8675;SDS011;4375;52.486;13.424;2022-10-31T17:15:42;81.97;;;39.00;;
8675;SDS011;4375;52.486;13.424;2022-10-31T17:18:11;85.20;;;39.00;;
8675;SDS011;4375;52.486;13.424;2022-10-31T17:20:40;87.30;;;40.57;;
8675;SDS011;4375;52.486;13.424;2022-10-31T17:23:08;78.57;;;38.87;;
8675;SDS011;4375;52.486;13.424;2022-10-31T17:25:35;81.10;;;39.83;;
8675;SDS011;4375;52.486;13.424;2022-10-31T17:28:01;97.63;;;44.70;;
8675;SDS011;4375;52.486;13.424;2022-10-31T17:30:27;98.83;;;43.10;;
8675;SDS011;4375;52.486;13.424;2022-10-31T17:32:53;88.50;;;43.97;;
8675;SDS011;4375;52.486;13.424;2022-10-31T17:35:19;100.83;;;46.03;;
8675;SDS011;4375;52.486;13.424;2022-10-31T17:37:46;95.00;;;45.37;;
8675;SDS011;4375;52.486;13.424;2022-10-31T17:40:13;97.93;;;47.33;;
8675;SDS011;4375;52.486;13.424;2022-10-31T17:42:40;93.83;;;45.00;;
8675;SDS011;4375;52.486;13.424;2022-10-31T17:45:07;85.40;;;43.70;;